GER24M EKCH-EDDB
Flight info
| Callsign | GER24M |
|---|---|
| Flight time | 0h 43m |
| Altitude | 37000 |
| Route | SALLO M44 KOGIM M725 RODEP T280 KETAP KETAP1R |
| Aircraft | A20N/M-SDE2E3FGHIRWXY/LB1 |
Departure
| Time | 2026-05-06 18:55 |
|---|---|
| Airport | Copenhagen Kastrup Airport (EKCH) |
Arrival
| Time | 2026-05-06 19:38 |
|---|---|
| Airport | Berlin Brandenburg Airport (EDDB) |
| Time | Latitude | Longitude | Altitude | Speed | Heading |
|---|---|---|---|---|---|
| 2026-05-06 18:16 | 55.62830 | 12.63235 | 18 ft | 0 kts | 6° |
| 2026-05-06 18:45 | 55.62825 | 12.63235 | 18 ft | 3 kts | 8° |
| 2026-05-06 18:45 | 55.62801 | 12.63221 | 20 ft | 4 kts | 42° |
| 2026-05-06 18:46 | 55.62787 | 12.63183 | 20 ft | 4 kts | 88° |
| 2026-05-06 18:46 | 55.62791 | 12.63151 | 20 ft | 0 kts | 124° |
| 2026-05-06 18:50 | 55.62784 | 12.63169 | 19 ft | 5 kts | 124° |
| 2026-05-06 18:50 | 55.62751 | 12.63254 | 18 ft | 13 kts | 124° |
| 2026-05-06 18:51 | 55.62691 | 12.63424 | 18 ft | 18 kts | 115° |
| 2026-05-06 18:51 | 55.62671 | 12.63633 | 22 ft | 17 kts | 94° |
| 2026-05-06 18:51 | 55.62656 | 12.63843 | 25 ft | 17 kts | 115° |
| 2026-05-06 18:51 | 55.62588 | 12.64023 | 23 ft | 19 kts | 124° |
| 2026-05-06 18:52 | 55.62510 | 12.64228 | 22 ft | 21 kts | 124° |
| 2026-05-06 18:52 | 55.62417 | 12.64439 | 18 ft | 21 kts | 150° |
| 2026-05-06 18:52 | 55.62291 | 12.64401 | 18 ft | 19 kts | 195° |
| 2026-05-06 18:52 | 55.62171 | 12.64323 | 15 ft | 15 kts | 205° |
| 2026-05-06 18:53 | 55.62080 | 12.64248 | 18 ft | 14 kts | 205° |
| 2026-05-06 18:53 | 55.61991 | 12.64174 | 22 ft | 14 kts | 204° |
| 2026-05-06 18:53 | 55.61911 | 12.64107 | 24 ft | 12 kts | 206° |
| 2026-05-06 18:53 | 55.61834 | 12.64075 | 27 ft | 12 kts | 178° |
| 2026-05-06 18:54 | 55.61748 | 12.64080 | 28 ft | 13 kts | 178° |
| 2026-05-06 18:54 | 55.61654 | 12.64082 | 27 ft | 13 kts | 185° |
| 2026-05-06 18:54 | 55.61571 | 12.63983 | 26 ft | 17 kts | 222° |
| 2026-05-06 18:54 | 55.61396 | 12.63714 | 22 ft | 65 kts | 221° |
| 2026-05-06 18:55 | 55.60898 | 12.62941 | 25 ft | 123 kts | 220° |
| 2026-05-06 18:55 | 55.60165 | 12.61777 | 260 ft | 146 kts | 219° |
| 2026-05-06 18:55 | 55.59389 | 12.60574 | 829 ft | 153 kts | 216° |
| 2026-05-06 18:55 | 55.58542 | 12.59428 | 1417 ft | 158 kts | 212° |
| 2026-05-06 18:56 | 55.57607 | 12.58257 | 1818 ft | 175 kts | 213° |
| 2026-05-06 18:56 | 55.56647 | 12.56800 | 2331 ft | 187 kts | 220° |
| 2026-05-06 18:56 | 55.55524 | 12.55529 | 2848 ft | 199 kts | 198° |
| 2026-05-06 18:56 | 55.54156 | 12.54695 | 3354 ft | 215 kts | 186° |
| 2026-05-06 18:57 | 55.52675 | 12.55030 | 3965 ft | 221 kts | 151° |
| 2026-05-06 18:57 | 55.51360 | 12.56564 | 4626 ft | 234 kts | 139° |
| 2026-05-06 18:57 | 55.50072 | 12.58473 | 5258 ft | 250 kts | 136° |
| 2026-05-06 18:57 | 55.48718 | 12.60536 | 5897 ft | 264 kts | 137° |
| 2026-05-06 18:58 | 55.47284 | 12.62651 | 6529 ft | 272 kts | 138° |
| 2026-05-06 18:58 | 55.45810 | 12.64755 | 7128 ft | 275 kts | 139° |
| 2026-05-06 18:58 | 55.44303 | 12.66863 | 7741 ft | 279 kts | 140° |
| 2026-05-06 18:58 | 55.42772 | 12.68987 | 8357 ft | 281 kts | 140° |
| 2026-05-06 18:59 | 55.41247 | 12.71097 | 8987 ft | 284 kts | 141° |
| 2026-05-06 18:59 | 55.39680 | 12.73262 | 9633 ft | 288 kts | 141° |
| 2026-05-06 18:59 | 55.38094 | 12.75454 | 10242 ft | 294 kts | 142° |
| 2026-05-06 18:59 | 55.36454 | 12.77719 | 10844 ft | 306 kts | 142° |
| 2026-05-06 19:00 | 55.34749 | 12.80071 | 11458 ft | 317 kts | 142° |
| 2026-05-06 19:00 | 55.32990 | 12.82494 | 12056 ft | 328 kts | 143° |
| 2026-05-06 19:00 | 55.31158 | 12.85016 | 12592 ft | 340 kts | 143° |
| 2026-05-06 19:00 | 55.29265 | 12.87616 | 13152 ft | 351 kts | 143° |
| 2026-05-06 19:01 | 55.27322 | 12.90284 | 13801 ft | 358 kts | 143° |
| 2026-05-06 19:01 | 55.25370 | 12.92964 | 14366 ft | 363 kts | 143° |
| 2026-05-06 19:01 | 55.23373 | 12.95701 | 14957 ft | 366 kts | 143° |
| 2026-05-06 19:01 | 55.21362 | 12.98454 | 15559 ft | 368 kts | 144° |
| 2026-05-06 19:02 | 55.19338 | 13.01217 | 16167 ft | 371 kts | 144° |
| 2026-05-06 19:02 | 55.17291 | 13.04010 | 16794 ft | 374 kts | 144° |
| 2026-05-06 19:02 | 55.15227 | 13.06821 | 17429 ft | 378 kts | 144° |
| 2026-05-06 19:02 | 55.13140 | 13.09660 | 18081 ft | 382 kts | 144° |
| 2026-05-06 19:03 | 55.11036 | 13.12518 | 18667 ft | 385 kts | 145° |
| 2026-05-06 19:03 | 55.08911 | 13.15400 | 19241 ft | 388 kts | 145° |
| 2026-05-06 19:03 | 55.06770 | 13.18299 | 19818 ft | 391 kts | 145° |
| 2026-05-06 19:03 | 55.04644 | 13.21160 | 20415 ft | 392 kts | 147° |
| 2026-05-06 19:04 | 55.02256 | 13.23361 | 21020 ft | 387 kts | 165° |
| 2026-05-06 19:04 | 55.00501 | 13.24091 | 21447 ft | 382 kts | 176° |
| 2026-05-06 19:04 | 54.97028 | 13.23823 | 22294 ft | 377 kts | 191° |
| 2026-05-06 19:04 | 54.94427 | 13.23193 | 22890 ft | 379 kts | 191° |
| 2026-05-06 19:05 | 54.91805 | 13.22556 | 23443 ft | 382 kts | 191° |
| 2026-05-06 19:05 | 54.89166 | 13.21927 | 23920 ft | 384 kts | 191° |
| 2026-05-06 19:05 | 54.86508 | 13.21304 | 24398 ft | 386 kts | 190° |
| 2026-05-06 19:05 | 54.83871 | 13.20694 | 24873 ft | 388 kts | 190° |
| 2026-05-06 19:06 | 54.81191 | 13.20079 | 25367 ft | 389 kts | 189° |
| 2026-05-06 19:06 | 54.78502 | 13.19464 | 25857 ft | 390 kts | 189° |
| 2026-05-06 19:06 | 54.75812 | 13.18849 | 26362 ft | 390 kts | 189° |
| 2026-05-06 19:06 | 54.73123 | 13.18236 | 26876 ft | 390 kts | 189° |
| 2026-05-06 19:07 | 54.70436 | 13.17624 | 27400 ft | 389 kts | 189° |
| 2026-05-06 19:07 | 54.67749 | 13.17013 | 27890 ft | 389 kts | 188° |
| 2026-05-06 19:07 | 54.65059 | 13.16401 | 28327 ft | 390 kts | 188° |
| 2026-05-06 19:07 | 54.63276 | 13.15996 | 28620 ft | 391 kts | 188° |
| 2026-05-06 19:08 | 54.59706 | 13.15188 | 29212 ft | 391 kts | 188° |
| 2026-05-06 19:08 | 54.57010 | 13.14578 | 29665 ft | 391 kts | 188° |
| 2026-05-06 19:08 | 54.54315 | 13.13970 | 30106 ft | 390 kts | 188° |
| 2026-05-06 19:08 | 54.51622 | 13.13364 | 30499 ft | 390 kts | 188° |
| 2026-05-06 19:09 | 54.48938 | 13.12762 | 30898 ft | 389 kts | 188° |
| 2026-05-06 19:09 | 54.46253 | 13.12160 | 31294 ft | 388 kts | 188° |
| 2026-05-06 19:09 | 54.43582 | 13.11562 | 31706 ft | 387 kts | 189° |
| 2026-05-06 19:09 | 54.41817 | 13.11167 | 31978 ft | 386 kts | 189° |
| 2026-05-06 19:10 | 54.38255 | 13.10372 | 32421 ft | 386 kts | 189° |
| 2026-05-06 19:10 | 54.35625 | 13.09787 | 32736 ft | 386 kts | 189° |
| 2026-05-06 19:10 | 54.32924 | 13.09186 | 33065 ft | 386 kts | 189° |
| 2026-05-06 19:10 | 54.30295 | 13.08602 | 33385 ft | 386 kts | 189° |
| 2026-05-06 19:11 | 54.27631 | 13.08011 | 33716 ft | 385 kts | 190° |
| 2026-05-06 19:11 | 54.24977 | 13.07423 | 34027 ft | 385 kts | 190° |
| 2026-05-06 19:11 | 54.22328 | 13.06836 | 34301 ft | 383 kts | 190° |
| 2026-05-06 19:11 | 54.19677 | 13.06249 | 34449 ft | 386 kts | 190° |
| 2026-05-06 19:12 | 54.16979 | 13.05648 | 34337 ft | 397 kts | 190° |
| 2026-05-06 19:12 | 54.14189 | 13.05027 | 33994 ft | 413 kts | 190° |
| 2026-05-06 19:12 | 54.11301 | 13.04385 | 33521 ft | 423 kts | 189° |
| 2026-05-06 19:12 | 54.08376 | 13.03742 | 33022 ft | 424 kts | 189° |
| 2026-05-06 19:13 | 54.05461 | 13.03103 | 32536 ft | 422 kts | 189° |
| 2026-05-06 19:13 | 54.02586 | 13.02474 | 32058 ft | 422 kts | 189° |
| 2026-05-06 19:13 | 53.99671 | 13.01836 | 31592 ft | 423 kts | 189° |
| 2026-05-06 19:13 | 53.96747 | 13.01196 | 31130 ft | 425 kts | 189° |
| 2026-05-06 19:14 | 53.93813 | 13.00554 | 30673 ft | 425 kts | 189° |
| 2026-05-06 19:14 | 53.90877 | 12.99914 | 30224 ft | 424 kts | 189° |
| 2026-05-06 19:14 | 53.87961 | 12.99279 | 29735 ft | 420 kts | 189° |
| 2026-05-06 19:14 | 53.85078 | 12.98652 | 29210 ft | 416 kts | 189° |
| 2026-05-06 19:15 | 53.82228 | 12.98032 | 28704 ft | 411 kts | 189° |
| 2026-05-06 19:15 | 53.79399 | 12.97417 | 28205 ft | 408 kts | 189° |
| 2026-05-06 19:15 | 53.76591 | 12.96807 | 27717 ft | 405 kts | 189° |
| 2026-05-06 19:15 | 53.73804 | 12.96202 | 27231 ft | 403 kts | 189° |
| 2026-05-06 19:16 | 53.71032 | 12.95602 | 26755 ft | 400 kts | 189° |
| 2026-05-06 19:16 | 53.68279 | 12.95006 | 26287 ft | 397 kts | 189° |
| 2026-05-06 19:16 | 53.65582 | 12.94424 | 25836 ft | 395 kts | 189° |
| 2026-05-06 19:16 | 53.62869 | 12.93839 | 25383 ft | 393 kts | 190° |
| 2026-05-06 19:17 | 53.60161 | 12.93255 | 24938 ft | 391 kts | 190° |
| 2026-05-06 19:17 | 53.57474 | 12.92677 | 24499 ft | 388 kts | 190° |
| 2026-05-06 19:17 | 53.55702 | 12.92296 | 24215 ft | 387 kts | 190° |
| 2026-05-06 19:17 | 53.52133 | 12.91530 | 23643 ft | 386 kts | 190° |
| 2026-05-06 19:18 | 53.49478 | 12.90961 | 23176 ft | 384 kts | 190° |
| 2026-05-06 19:18 | 53.46838 | 12.90396 | 22678 ft | 381 kts | 190° |
| 2026-05-06 19:18 | 53.44223 | 12.89838 | 22185 ft | 377 kts | 190° |
| 2026-05-06 19:18 | 53.42501 | 12.89470 | 21868 ft | 375 kts | 190° |
| 2026-05-06 19:19 | 53.39082 | 12.88740 | 21233 ft | 373 kts | 190° |
| 2026-05-06 19:19 | 53.37353 | 12.88371 | 20921 ft | 371 kts | 190° |
| 2026-05-06 19:19 | 53.33981 | 12.87653 | 20311 ft | 367 kts | 190° |
| 2026-05-06 19:19 | 53.31452 | 12.87115 | 19869 ft | 365 kts | 190° |
| 2026-05-06 19:20 | 53.29785 | 12.86761 | 19562 ft | 364 kts | 190° |
| 2026-05-06 19:20 | 53.26440 | 12.86051 | 18971 ft | 361 kts | 190° |
| 2026-05-06 19:20 | 53.23954 | 12.85525 | 18538 ft | 359 kts | 190° |
| 2026-05-06 19:20 | 53.21480 | 12.85000 | 18102 ft | 357 kts | 190° |
| 2026-05-06 19:21 | 53.19019 | 12.84480 | 17610 ft | 355 kts | 190° |
| 2026-05-06 19:21 | 53.16574 | 12.83963 | 17126 ft | 354 kts | 190° |
| 2026-05-06 19:21 | 53.14132 | 12.83448 | 16650 ft | 352 kts | 190° |
| 2026-05-06 19:21 | 53.11709 | 12.82938 | 16183 ft | 350 kts | 190° |
| 2026-05-06 19:22 | 53.09299 | 12.82431 | 15695 ft | 349 kts | 190° |
| 2026-05-06 19:22 | 53.06897 | 12.81926 | 15189 ft | 346 kts | 189° |
| 2026-05-06 19:22 | 53.04548 | 12.81433 | 14703 ft | 344 kts | 189° |
| 2026-05-06 19:22 | 53.02183 | 12.80938 | 14219 ft | 342 kts | 189° |
| 2026-05-06 19:23 | 52.99821 | 12.80443 | 13730 ft | 342 kts | 189° |
| 2026-05-06 19:23 | 52.97468 | 12.79949 | 13208 ft | 340 kts | 189° |
| 2026-05-06 19:23 | 52.95134 | 12.79461 | 12675 ft | 337 kts | 189° |
| 2026-05-06 19:23 | 52.92811 | 12.78977 | 12155 ft | 335 kts | 189° |
| 2026-05-06 19:24 | 52.90504 | 12.78496 | 11641 ft | 333 kts | 189° |
| 2026-05-06 19:24 | 52.88211 | 12.78019 | 11137 ft | 332 kts | 189° |
| 2026-05-06 19:24 | 52.85921 | 12.77542 | 10641 ft | 331 kts | 189° |
| 2026-05-06 19:24 | 52.83670 | 12.77075 | 10167 ft | 329 kts | 189° |
| 2026-05-06 19:25 | 52.81423 | 12.76610 | 9938 ft | 322 kts | 189° |
| 2026-05-06 19:25 | 52.79250 | 12.76162 | 9834 ft | 308 kts | 189° |
| 2026-05-06 19:25 | 52.77178 | 12.75737 | 9841 ft | 292 kts | 190° |
| 2026-05-06 19:25 | 52.75870 | 12.75469 | 9835 ft | 281 kts | 190° |
| 2026-05-06 19:26 | 52.73287 | 12.74932 | 9841 ft | 282 kts | 190° |
| 2026-05-06 19:26 | 52.71338 | 12.74529 | 9839 ft | 281 kts | 188° |
| 2026-05-06 19:26 | 52.69391 | 12.74856 | 9833 ft | 287 kts | 163° |
| 2026-05-06 19:26 | 52.68184 | 12.75793 | 9848 ft | 291 kts | 154° |
| 2026-05-06 19:27 | 52.65835 | 12.78004 | 9838 ft | 291 kts | 152° |
| 2026-05-06 19:27 | 52.64118 | 12.79669 | 9840 ft | 290 kts | 153° |
| 2026-05-06 19:27 | 52.62375 | 12.81345 | 9833 ft | 290 kts | 153° |
| 2026-05-06 19:27 | 52.60631 | 12.83004 | 9766 ft | 288 kts | 153° |
| 2026-05-06 19:28 | 52.58893 | 12.84644 | 9465 ft | 287 kts | 153° |
| 2026-05-06 19:28 | 52.57159 | 12.86271 | 9092 ft | 286 kts | 153° |
| 2026-05-06 19:28 | 52.55434 | 12.87886 | 8699 ft | 285 kts | 153° |
| 2026-05-06 19:28 | 52.53718 | 12.89490 | 8307 ft | 283 kts | 153° |
| 2026-05-06 19:29 | 52.52009 | 12.91087 | 7928 ft | 282 kts | 153° |
| 2026-05-06 19:29 | 52.50318 | 12.92665 | 7409 ft | 286 kts | 153° |
| 2026-05-06 19:29 | 52.48575 | 12.94290 | 6893 ft | 289 kts | 152° |
| 2026-05-06 19:29 | 52.46822 | 12.95923 | 6454 ft | 290 kts | 152° |
| 2026-05-06 19:30 | 52.45070 | 12.97554 | 6030 ft | 289 kts | 152° |
| 2026-05-06 19:30 | 52.43332 | 12.99172 | 5653 ft | 284 kts | 152° |
| 2026-05-06 19:30 | 52.41652 | 13.00734 | 5356 ft | 271 kts | 152° |
| 2026-05-06 19:30 | 52.40047 | 13.02228 | 5055 ft | 260 kts | 152° |
| 2026-05-06 19:31 | 52.38506 | 13.03659 | 4795 ft | 249 kts | 152° |
| 2026-05-06 19:31 | 52.37019 | 13.05034 | 4545 ft | 243 kts | 152° |
| 2026-05-06 19:31 | 52.34117 | 13.07713 | 3971 ft | 237 kts | 150° |
| 2026-05-06 19:32 | 52.33158 | 13.08599 | 3796 ft | 233 kts | 150° |
| 2026-05-06 19:32 | 52.31319 | 13.10295 | 3473 ft | 225 kts | 150° |
| 2026-05-06 19:32 | 52.30405 | 13.11139 | 3338 ft | 221 kts | 150° |
| 2026-05-06 19:32 | 52.28704 | 13.12786 | 3130 ft | 209 kts | 140° |
| 2026-05-06 19:33 | 52.27870 | 13.14600 | 3015 ft | 196 kts | 108° |
| 2026-05-06 19:33 | 52.27700 | 13.16849 | 3013 ft | 205 kts | 84° |
| 2026-05-06 19:33 | 52.27986 | 13.19083 | 3009 ft | 195 kts | 72° |
| 2026-05-06 19:33 | 52.28419 | 13.21088 | 3008 ft | 180 kts | 69° |
| 2026-05-06 19:34 | 52.28879 | 13.23010 | 3055 ft | 186 kts | 69° |
| 2026-05-06 19:34 | 52.29342 | 13.24961 | 3007 ft | 183 kts | 69° |
| 2026-05-06 19:34 | 52.29806 | 13.26910 | 2838 ft | 184 kts | 69° |
| 2026-05-06 19:34 | 52.30257 | 13.28807 | 2577 ft | 179 kts | 69° |
| 2026-05-06 19:35 | 52.30702 | 13.30678 | 2334 ft | 175 kts | 69° |
| 2026-05-06 19:35 | 52.31135 | 13.32503 | 2100 ft | 165 kts | 69° |
| 2026-05-06 19:35 | 52.31532 | 13.34167 | 1890 ft | 148 kts | 69° |
| 2026-05-06 19:35 | 52.31770 | 13.35169 | 1762 ft | 136 kts | 69° |
| 2026-05-06 19:36 | 52.32099 | 13.36567 | 1508 ft | 132 kts | 69° |
| 2026-05-06 19:36 | 52.32534 | 13.38463 | 1171 ft | 135 kts | 69° |
| 2026-05-06 19:36 | 52.32864 | 13.39888 | 973 ft | 133 kts | 68° |
| 2026-05-06 19:36 | 52.33087 | 13.40821 | 849 ft | 133 kts | 67° |
| 2026-05-06 19:37 | 52.33424 | 13.42216 | 691 ft | 131 kts | 67° |
| 2026-05-06 19:37 | 52.33873 | 13.44072 | 457 ft | 130 kts | 67° |
| 2026-05-06 19:37 | 52.34207 | 13.45445 | 338 ft | 131 kts | 66° |
| 2026-05-06 19:37 | 52.34431 | 13.46372 | 256 ft | 133 kts | 67° |
| 2026-05-06 19:38 | 52.34871 | 13.48189 | 163 ft | 114 kts | 67° |
| 2026-05-06 19:38 | 52.35080 | 13.49090 | 159 ft | 53 kts | 68° |
| 2026-05-06 19:38 | 52.35190 | 13.49565 | 160 ft | 42 kts | 69° |
| 2026-05-06 19:38 | 52.35334 | 13.49938 | 153 ft | 24 kts | 43° |
| 2026-05-06 19:39 | 52.35393 | 13.50021 | 154 ft | 10 kts | 39° |
| 2026-05-06 19:39 | 52.35452 | 13.50094 | 153 ft | 7 kts | 36° |
| 2026-05-06 19:39 | 52.35453 | 13.50095 | 153 ft | 0 kts | 36° |
| 2026-05-06 19:40 | 52.35459 | 13.50102 | 153 ft | 4 kts | 35° |
| 2026-05-06 19:40 | 52.35495 | 13.50144 | 154 ft | 8 kts | 37° |
| 2026-05-06 19:41 | 52.35539 | 13.50205 | 155 ft | 8 kts | 40° |
| 2026-05-06 19:41 | 52.35567 | 13.50245 | 157 ft | 8 kts | 40° |
| 2026-05-06 19:41 | 52.35615 | 13.50365 | 155 ft | 12 kts | 69° |
| 2026-05-06 19:41 | 52.35637 | 13.50457 | 155 ft | 14 kts | 68° |
| 2026-05-06 19:42 | 52.35683 | 13.50650 | 156 ft | 10 kts | 70° |
| 2026-05-06 19:42 | 52.35707 | 13.50762 | 155 ft | 10 kts | 70° |
| 2026-05-06 19:42 | 52.35733 | 13.50833 | 155 ft | 6 kts | 31° |
| 2026-05-06 19:42 | 52.35780 | 13.50826 | 154 ft | 9 kts | 337° |
| 2026-05-06 19:43 | 52.35818 | 13.50800 | 152 ft | 7 kts | 337° |
| 2026-05-06 19:43 | 52.35870 | 13.50764 | 151 ft | 7 kts | 337° |
| 2026-05-06 19:43 | 52.35910 | 13.50678 | 152 ft | 9 kts | 293° |
| 2026-05-06 19:43 | 52.35954 | 13.50592 | 148 ft | 12 kts | 273° |
| 2026-05-06 19:44 | 52.35941 | 13.50505 | 149 ft | 8 kts | 248° |
| 2026-05-06 19:44 | 52.35913 | 13.50410 | 151 ft | 0 kts | 245° |
| 2026-05-06 19:48 | 52.35913 | 13.50411 | 151 ft | 0 kts | 245° |
| 2026-05-06 19:51 | 52.35913 | 13.50410 | 151 ft | 0 kts | 245° |